Time;durP1;ratioP1;P1;durP2;ratioP2;P2;SDS_P1;SDS_P2;PMS_P1;PMS_P2;Temp;Humidity;BMP_temperature;BMP_pressure;BME280_temperature;BME280_humidity;BME280_pressure;Samples;Min_cycle;Max_cycle;Signal;HPM_P1;HPM_P2
2023/08/22 01:49:22;;;;;;;16.60;12.90;;;;;;;24.77;100.00;100597.30;106585;1251;61183;-88
2023/08/22 01:52:10;;;;;;;16.00;12.40;;;;;;;24.68;100.00;100594.98;106532;1256;71499;-88
2023/08/22 01:55:00;;;;;;;16.60;11.70;;;;;;;24.70;100.00;100597.58;106535;1251;61264;-89
2023/08/22 01:57:49;;;;;;;17.10;11.90;;;;;;;24.67;100.00;100594.96;106568;1251;61349;-89
2023/08/22 02:00:38;;;;;;;17.30;12.50;;;;;;;24.79;100.00;100598.45;106464;1258;74583;-90
2023/08/22 02:03:27;;;;;;;15.70;12.50;;;;;;;24.96;100.00;100597.63;106579;1251;70818;-90
2023/08/22 02:06:16;;;;;;;14.90;11.50;;;;;;;24.99;100.00;100596.64;106387;1254;66176;-90
2023/08/22 02:09:05;;;;;;;14.90;11.60;;;;;;;25.12;100.00;100604.77;106565;1256;61131;-88
2023/08/22 02:11:54;;;;;;;17.80;11.90;;;;;;;25.17;100.00;100597.34;106545;1251;61345;-88
2023/08/22 02:14:42;;;;;;;17.40;11.50;;;;;;;25.14;100.00;100596.41;106504;1254;68335;-88
2023/08/22 02:17:31;;;;;;;16.50;11.70;;;;;;;25.21;100.00;100596.13;106526;1251;61166;-88
2023/08/22 02:20:23;;;;;;;18.60;11.30;;;;;;;25.21;100.00;100587.52;106321;1254;64235;-89
2023/08/22 02:23:11;;;;;;;22.20;13.00;;;;;;;25.25;100.00;100578.16;106488;1257;61316;-90
2023/08/22 02:26:00;;;;;;;17.10;12.00;;;;;;;25.24;100.00;100572.46;106449;1251;61291;-91
2023/08/22 02:28:50;;;;;;;15.40;11.70;;;;;;;25.21;100.00;100568.89;106548;1251;68067;-89
2023/08/22 02:31:42;;;;;;;17.00;12.20;;;;;;;25.22;100.00;100568.42;106578;1251;61290;-89
2023/08/22 02:34:32;;;;;;;15.40;11.30;;;;;;;25.20;100.00;100569.21;106491;1253;63372;-90
2023/08/22 02:37:21;;;;;;;17.40;12.20;;;;;;;25.05;100.00;100573.75;106569;1251;61287;-89
2023/08/22 02:40:10;;;;;;;17.60;12.30;;;;;;;24.99;100.00;100589.94;106585;1251;61205;-89
2023/08/22 02:42:59;;;;;;;16.90;13.00;;;;;;;25.02;100.00;100596.05;106570;1256;76042;-89
2023/08/22 02:45:50;;;;;;;18.60;13.80;;;;;;;25.00;100.00;100598.48;106394;1256;61232;-90
2023/08/22 02:48:42;;;;;;;18.90;13.50;;;;;;;25.03;100.00;100603.27;106464;1254;66750;-90
2023/08/22 02:51:31;;;;;;;19.40;13.10;;;;;;;25.22;100.00;100599.59;106477;1251;63434;-88
2023/08/22 02:54:19;;;;;;;20.70;14.70;;;;;;;25.20;100.00;100603.55;106578;1251;61368;-89
2023/08/22 02:57:08;;;;;;;17.90;13.30;;;;;;;25.30;100.00;100601.38;106614;1251;65808;-89
2023/08/22 02:59:57;;;;;;;17.90;13.70;;;;;;;25.44;100.00;100601.44;106431;1253;61228;-89
2023/08/22 03:02:45;;;;;;;17.20;13.70;;;;;;;25.46;100.00;100596.70;106348;1257;62519;-89
2023/08/22 03:05:34;;;;;;;18.60;14.40;;;;;;;25.44;100.00;100595.76;106168;1255;61317;-90
2023/08/22 03:08:23;;;;;;;19.50;13.20;;;;;;;25.49;100.00;100598.80;106314;1254;61985;-91
2023/08/22 03:11:12;;;;;;;18.10;13.40;;;;;;;25.48;100.00;100596.63;106462;1254;65703;-89
2023/08/22 03:14:01;;;;;;;15.80;13.20;;;;;;;25.53;100.00;100594.86;106373;1254;61383;-91
2023/08/22 03:16:53;;;;;;;16.60;13.40;;;;;;;25.56;100.00;100596.34;106312;1254;63751;-89
2023/08/22 03:19:44;;;;;;;19.90;13.80;;;;;;;25.55;100.00;100595.30;106165;1254;61248;-88
2023/08/22 03:22:33;;;;;;;16.70;13.60;;;;;;;25.63;100.00;100591.16;106265;1257;61458;-88
2023/08/22 03:25:22;;;;;;;16.80;13.00;;;;;;;25.74;100.00;100586.84;106175;1259;68817;-88
2023/08/22 03:28:11;;;;;;;18.60;13.30;;;;;;;25.80;100.00;100587.55;106627;1254;61311;-90
2023/08/22 03:31:03;;;;;;;18.30;12.70;;;;;;;25.81;100.00;100588.52;106221;1254;66203;-89
2023/08/22 03:33:52;;;;;;;17.30;12.30;;;;;;;25.85;100.00;100588.11;106294;1254;61278;-88
2023/08/22 03:36:41;;;;;;;19.90;14.10;;;;;;;26.02;100.00;100588.67;106087;1257;61379;-88
2023/08/22 03:39:33;;;;;;;20.40;13.70;;;;;;;26.08;100.00;100584.41;106332;1254;68744;-90
2023/08/22 03:42:22;;;;;;;17.70;14.30;;;;;;;26.16;100.00;100586.99;106270;1257;61387;-90
2023/08/22 03:45:11;;;;;;;18.90;13.60;;;;;;;26.34;100.00;100586.86;106065;1252;65021;-90
2023/08/22 03:48:03;;;;;;;19.20;14.20;;;;;;;26.52;100.00;100583.87;106317;1254;61271;-90
2023/08/22 03:50:52;;;;;;;19.20;14.00;;;;;;;26.66;100.00;100583.21;106259;1254;61325;-90
2023/08/22 03:53:41;;;;;;;22.00;13.90;;;;;;;26.91;100.00;100588.48;106356;1254;66728;-89
2023/08/22 03:56:30;;;;;;;18.10;13.80;;;;;;;27.06;100.00;100591.09;106348;1257;62280;-90
2023/08/22 03:59:20;;;;;;;16.20;13.80;;;;;;;27.19;100.00;100590.81;106490;1257;66550;-92
2023/08/22 04:02:09;;;;;;;17.50;12.30;;;;;;;27.40;100.00;100587.60;106252;1257;61899;-91
2023/08/22 04:04:58;;;;;;;19.60;13.50;;;;;;;27.58;100.00;100583.37;106472;1256;61148;-92
2023/08/22 04:07:47;;;;;;;15.20;12.60;;;;;;;27.79;100.00;100583.73;106250;1251;64548;-92
2023/08/22 04:10:36;;;;;;;20.80;13.30;;;;;;;28.04;100.00;100590.11;106251;1257;62270;-94
2023/08/22 04:13:27;;;;;;;17.60;13.40;;;;;;;28.16;100.00;100589.67;106455;1254;65673;-92
2023/08/22 04:16:16;;;;;;;18.50;13.20;;;;;;;28.25;100.00;100581.91;106471;1253;61366;-92
2023/08/22 04:19:05;;;;;;;19.90;13.30;;;;;;;28.29;100.00;100586.18;106292;1260;61276;-90
2023/08/22 04:21:54;;;;;;;20.50;13.80;;;;;;;28.31;100.00;100593.02;106197;1257;67210;-93
2023/08/22 04:24:43;;;;;;;17.80;13.20;;;;;;;28.30;100.00;100598.30;106294;1251;62688;-93
2023/08/22 04:27:32;;;;;;;17.30;12.90;;;;;;;28.30;100.00;100603.69;106207;1257;62510;-91
2023/08/22 04:30:21;;;;;;;19.10;14.10;;;;;;;28.42;100.00;100605.97;106247;1251;61334;-93
2023/08/22 04:33:10;;;;;;;19.10;12.80;;;;;;;28.68;100.00;100609.49;106278;1251;61425;-90
2023/08/22 04:35:59;;;;;;;16.60;12.50;;;;;;;28.92;100.00;100615.46;106556;1251;67188;-92
2023/08/22 04:38:49;;;;;;;21.50;13.10;;;;;;;29.04;100.00;100621.42;106489;1251;61654;-94
2023/08/22 04:41:40;;;;;;;19.20;12.50;;;;;;;29.19;100.00;100625.86;106361;1253;64199;-94
2023/08/22 04:44:38;;;;;;;18.30;13.00;;;;;;;29.30;100.00;100625.36;106456;1251;61240;-95
2023/08/22 04:47:26;;;;;;;18.60;12.10;;;;;;;29.39;100.00;100628.16;106335;1257;61357;-93
2023/08/22 04:50:15;;;;;;;15.90;11.90;;;;;;;29.50;100.00;100623.33;106276;1251;68493;-94
2023/08/22 04:53:06;;;;;;;20.80;13.00;;;;;;;29.61;100.00;100625.64;106348;1251;61363;-92
2023/08/22 04:55:55;;;;;;;18.00;13.60;;;;;;;29.71;100.00;100628.86;106288;1251;64700;-93
2023/08/22 04:58:44;;;;;;;18.90;12.80;;;;;;;29.72;100.00;100625.80;106567;1257;61337;-94
2023/08/22 05:01:34;;;;;;;19.00;13.20;;;;;;;29.79;100.00;100628.84;106584;1259;61346;-92
2023/08/22 05:04:25;;;;;;;21.00;13.60;;;;;;;29.87;100.00;100626.32;106368;1253;66576;-93
2023/08/22 05:07:14;;;;;;;20.90;13.20;;;;;;;29.93;100.00;100625.02;106160;1253;61570;-93
2023/08/22 05:10:03;;;;;;;19.30;13.30;;;;;;;29.99;100.00;100632.64;106346;1253;66066;-92
2023/08/22 05:12:52;;;;;;;16.80;12.80;;;;;;;30.06;100.00;100634.88;106439;1254;61234;-95
2023/08/22 05:15:42;;;;;;;18.90;13.70;;;;;;;30.10;100.00;100640.17;106534;1253;61524;-90
2023/08/22 05:18:32;;;;;;;16.40;13.10;;;;;;;30.15;100.00;100646.90;106696;1253;76065;-90
2023/08/22 05:21:24;;;;;;;17.70;13.10;;;;;;;30.25;100.00;100647.61;106689;1253;61287;-94
2023/08/22 05:24:13;;;;;;;17.40;11.80;;;;;;;30.33;100.00;100647.10;106481;1254;65574;-92
2023/08/22 05:27:02;;;;;;;19.90;13.20;;;;;;;30.50;100.00;100654.09;106240;1257;61117;-95
2023/08/22 05:29:51;;;;;;;19.20;13.60;;;;;;;30.67;100.00;100653.66;106303;1257;61339;-96
2023/08/22 05:32:40;;;;;;;17.30;12.70;;;;;;;30.94;100.00;100652.29;106391;1253;65887;-90
2023/08/22 05:35:29;;;;;;;18.10;12.30;;;;;;;31.20;100.00;100655.15;106369;1254;62351;-91
2023/08/22 05:38:18;;;;;;;18.10;11.70;;;;;;;31.35;100.00;100656.50;106316;1257;67513;-90
2023/08/22 05:41:07;;;;;;;18.90;11.80;;;;;;;31.37;99.97;100655.42;106413;1254;61351;-93
2023/08/22 05:43:56;;;;;;;14.40;11.70;;;;;;;31.38;100.00;100657.11;106392;1256;61218;-93
2023/08/22 05:46:46;;;;;;;16.00;11.60;;;;;;;31.51;98.45;100656.69;106422;1259;67896;-95
2023/08/22 05:49:35;;;;;;;14.20;10.80;;;;;;;31.56;96.21;100659.45;106403;1253;61775;-90
2023/08/22 05:52:25;;;;;;;30.90;12.00;;;;;;;31.51;97.10;100670.25;106489;1254;66371;-90
2023/08/22 05:55:15;;;;;;;17.60;9.00;;;;;;;31.63;97.22;100667.87;106441;1253;61327;-91
2023/08/22 05:58:04;;;;;;;12.40;8.80;;;;;;;31.79;92.51;100667.70;106511;1252;61157;-92
2023/08/22 06:00:52;;;;;;;12.50;8.70;;;;;;;31.89;88.99;100668.41;106438;1256;65734;-91
2023/08/22 06:03:41;;;;;;;10.50;8.10;;;;;;;32.01;85.32;100667.56;106479;1256;61243;-90
2023/08/22 06:06:30;;;;;;;9.60;7.90;;;;;;;31.92;83.18;100674.02;106479;1254;65603;-92
2023/08/22 06:09:19;;;;;;;11.90;7.70;;;;;;;31.92;80.49;100677.41;106304;1253;61256;-92
2023/08/22 06:12:08;;;;;;;9.80;7.10;;;;;;;31.86;80.77;100679.25;106570;1251;61176;-91
2023/08/22 06:14:58;;;;;;;9.90;7.00;;;;;;;31.79;80.27;100683.28;106534;1257;67911;-93
2023/08/22 06:17:47;;;;;;;9.30;6.60;;;;;;;31.76;78.39;100689.60;106640;1251;61193;-91
2023/08/22 06:20:39;;;;;;;8.90;6.90;;;;;;;31.72;76.85;100688.52;106396;1257;66356;-90
2023/08/22 06:23:28;;;;;;;10.10;6.80;;;;;;;31.73;77.76;100693.90;106530;1251;62989;-93
2023/08/22 06:26:17;;;;;;;8.60;6.40;;;;;;;31.78;76.52;100693.77;106542;1251;61701;-91
2023/08/22 06:29:08;;;;;;;10.00;6.90;;;;;;;31.65;77.15;100700.69;106895;1251;68554;-93
2023/08/22 06:32:00;;;;;;;9.20;6.20;;;;;;;31.62;76.80;100703.30;106803;1251;61393;-92
2023/08/22 06:34:49;;;;;;;10.90;7.20;;;;;;;31.61;76.86;100704.27;106533;1251;65096;-91
2023/08/22 06:37:42;;;;;;;9.00;6.30;;;;;;;31.71;75.53;100700.39;106727;1250;61187;-92
2023/08/22 06:40:34;;;;;;;9.70;6.80;;;;;;;31.67;75.32;100705.52;106351;1251;61216;-90
2023/08/22 06:43:25;;;;;;;9.80;6.80;;;;;;;31.79;75.85;100705.88;106503;1256;65896;-92
2023/08/22 06:46:21;;;;;;;10.70;7.20;;;;;;;32.05;74.12;100699.00;106618;1251;61726;-91
2023/08/22 06:49:10;;;;;;;8.80;6.10;;;;;;;32.29;72.75;100693.23;106730;1256;65210;-92
2023/08/22 06:51:58;;;;;;;9.10;5.50;;;;;;;32.52;70.48;100694.88;106442;1251;61268;-92
2023/08/22 06:54:47;;;;;;;7.30;5.70;;;;;;;32.66;67.36;100693.02;106593;1251;59278;-92
2023/08/22 06:57:36;;;;;;;9.80;5.60;;;;;;;32.78;65.66;100694.70;106701;1251;68306;-91
2023/08/22 07:00:28;;;;;;;7.90;5.10;;;;;;;32.98;62.34;100694.41;106565;1255;61236;-91
2023/08/22 07:03:17;;;;;;;6.70;4.70;;;;;;;33.05;57.96;100692.69;106535;1251;65794;-91
2023/08/22 07:06:06;;;;;;;5.40;4.30;;;;;;;33.13;54.00;100696.70;106400;1253;61189;-91
2023/08/22 07:08:54;;;;;;;16.60;4.20;;;;;;;33.05;52.73;100701.67;106330;1253;61367;-90
2023/08/22 07:11:44;;;;;;;5.90;4.20;;;;;;;33.02;50.74;100700.90;106409;1253;67283;-90
2023/08/22 07:14:32;;;;;;;12.20;4.10;;;;;;;33.06;50.96;100694.38;106348;1258;61915;-90
2023/08/22 07:17:21;;;;;;;8.60;3.60;;;;;;;33.12;49.69;100689.10;106430;1254;65865;-90
2023/08/22 07:20:28;;;;;;;6.10;3.40;;;;;;;33.26;48.29;100694.54;106372;1252;61339;-89
2023/08/22 07:23:21;;;;;;;3.40;2.90;;;;;;;33.32;46.22;100691.61;106434;1253;61374;-90
2023/08/22 07:26:10;;;;;;;7.80;3.40;;;;;;;33.43;44.76;100688.84;106467;1253;64478;-89
2023/08/22 07:28:59;;;;;;;4.50;2.80;;;;;;;33.56;43.82;100687.48;106319;1253;61773;-90
2023/08/22 07:31:48;;;;;;;6.90;3.00;;;;;;;33.71;43.47;100685.29;106430;1253;63827;-90
2023/08/22 07:34:37;;;;;;;4.60;2.80;;;;;;;33.84;42.19;100689.90;106435;1253;61310;-91
2023/08/22 07:37:26;;;;;;;7.10;2.50;;;;;;;33.90;39.98;100690.59;106538;1252;61275;-92
2023/08/22 07:40:16;;;;;;;7.10;2.40;;;;;;;33.96;37.63;100694.61;106281;1253;73604;-91
2023/08/22 07:43:05;;;;;;;5.20;2.30;;;;;;;33.95;36.99;100693.26;106494;1253;61068;-92
2023/08/22 07:45:54;;;;;;;5.40;2.20;;;;;;;33.96;37.61;100689.75;106571;1253;72855;-95
2023/08/22 07:48:43;;;;;;;8.80;2.30;;;;;;;34.04;36.29;100690.33;106344;1256;61301;-92
2023/08/22 07:51:32;;;;;;;6.00;2.00;;;;;;;34.03;35.84;100693.35;106469;1253;61739;-92
2023/08/22 07:54:21;;;;;;;5.70;2.20;;;;;;;34.02;35.04;100697.40;106444;1253;67764;-93
2023/08/22 07:57:11;;;;;;;10.40;2.40;;;;;;;34.11;34.73;100702.52;106309;1253;61575;-93
2023/08/22 08:00:14;;;;;;;9.30;2.40;;;;;;;34.19;33.57;100701.78;106327;1253;64327;-94
2023/08/22 08:03:06;;;;;;;7.80;2.00;;;;;;;34.28;32.72;100700.14;106605;1253;61337;-94
2023/08/22 08:05:55;;;;;;;11.30;2.00;;;;;;;34.33;31.96;100698.56;106658;1251;61294;-94
2023/08/22 08:08:44;;;;;;;16.00;2.50;;;;;;;34.27;31.52;100699.28;106459;1256;68584;-91
2023/08/22 08:11:35;;;;;;;7.70;1.90;;;;;;;34.23;31.23;100700.33;106565;1253;61365;-96
2023/08/22 08:14:24;;;;;;;15.70;2.20;;;;;;;34.21;30.91;100694.06;106327;1259;66178;-90
2023/08/22 08:17:13;;;;;;;6.80;2.10;;;;;;;34.19;30.26;100697.73;106694;1251;61241;-93
2023/08/22 08:20:03;;;;;;;6.70;1.80;;;;;;;34.15;30.67;100697.40;106558;1251;61315;-95
2023/08/22 08:22:54;;;;;;;8.60;2.00;;;;;;;34.20;30.66;100692.14;106469;1254;68161;-87
2023/08/22 08:25:43;;;;;;;6.30;2.00;;;;;;;34.22;29.89;100688.68;106612;1251;61198;-88
2023/08/22 08:28:35;;;;;;;6.80;2.10;;;;;;;34.27;30.07;100695.71;106623;1251;63779;-90
2023/08/22 08:31:23;;;;;;;7.40;2.20;;;;;;;34.30;30.40;100695.33;106608;1251;61259;-88
2023/08/22 08:34:14;;;;;;;2.50;1.70;;;;;;;34.40;30.99;100698.34;106642;1251;61237;-89
2023/08/22 08:37:04;;;;;;;6.30;2.10;;;;;;;34.56;30.95;100696.39;106534;1251;66655;-89
2023/08/22 08:39:52;;;;;;;7.70;1.50;;;;;;;34.70;30.33;100692.54;106641;1251;63063;-92
2023/08/22 08:42:41;;;;;;;7.90;1.90;;;;;;;34.70;29.95;100690.12;106692;1253;64731;-89
2023/08/22 08:45:31;;;;;;;8.80;2.30;;;;;;;34.77;28.99;100692.78;106454;1251;61318;-86
2023/08/22 08:48:19;;;;;;;15.40;3.00;;;;;;;34.87;28.05;100690.35;106410;1251;61282;-87
2023/08/22 08:51:08;;;;;;;11.30;2.20;;;;;;;34.93;28.34;100685.42;106439;1251;78431;-88
2023/08/22 08:53:57;;;;;;;8.40;2.30;;;;;;;34.99;28.83;100683.27;106375;1251;61884;-89
2023/08/22 08:56:46;;;;;;;5.90;1.80;;;;;;;35.17;28.21;100681.15;106439;1251;63782;-88
2023/08/22 08:59:34;;;;;;;9.00;2.40;;;;;;;35.26;27.74;100677.26;106604;1254;61348;-88
2023/08/22 09:02:23;;;;;;;9.20;2.60;;;;;;;35.21;28.23;100678.70;106684;1251;61298;-91
2023/08/22 09:05:12;;;;;;;18.20;3.20;;;;;;;35.22;28.60;100678.66;106609;1257;65814;-90
2023/08/22 09:08:18;;;;;;;6.10;2.00;;;;;;;35.24;28.94;100674.32;107124;1251;60590;-88
2023/08/22 09:11:06;;;;;;;4.40;2.10;;;;;;;35.34;29.11;100669.92;106790;1251;64838;-87
2023/08/22 09:13:56;;;;;;;8.10;2.50;;;;;;;35.54;29.63;100675.90;106640;1253;61508;-87
2023/08/22 09:16:45;;;;;;;9.00;2.40;;;;;;;35.74;27.79;100674.25;106656;1251;61355;-88
2023/08/22 09:19:34;;;;;;;8.70;2.40;;;;;;;35.67;27.51;100670.22;106592;1251;68416;-87
2023/08/22 09:22:30;;;;;;;6.30;2.70;;;;;;;35.65;28.12;100674.26;106528;1251;61874;-90
2023/08/22 09:25:19;;;;;;;3.10;2.00;;;;;;;35.68;28.14;100672.85;106714;1251;65134;-90
2023/08/22 09:28:09;;;;;;;6.10;2.30;;;;;;;35.70;28.16;100674.11;106475;1254;61378;-88
2023/08/22 09:30:58;;;;;;;7.00;2.30;;;;;;;35.70;27.73;100678.83;106589;1251;61298;-90
2023/08/22 09:33:48;;;;;;;4.50;2.20;;;;;;;35.63;27.46;100683.16;106522;1251;66830;-90
2023/08/22 09:36:45;;;;;;;2.60;1.90;;;;;;;35.55;27.78;100683.43;107797;1251;61393;-89
2023/08/22 09:39:36;;;;;;;8.30;2.20;;;;;;;35.25;28.95;100683.77;108153;1251;62540;-89
2023/08/22 09:42:27;;;;;;;4.30;2.10;;;;;;;35.16;29.22;100676.79;106356;1257;61387;-89
2023/08/22 09:45:16;;;;;;;3.20;2.10;;;;;;;35.09;29.23;100677.75;106631;1251;61215;-90
2023/08/22 09:48:05;;;;;;;5.50;2.20;;;;;;;35.27;28.42;100675.61;106581;1251;66785;-89
2023/08/22 09:50:57;;;;;;;7.90;2.50;;;;;;;35.24;28.34;100675.13;106843;1251;61288;-89
2023/08/22 09:53:53;;;;;;;8.40;2.40;;;;;;;35.06;28.62;100674.01;106524;1251;63733;-88
2023/08/22 09:56:42;;;;;;;9.50;2.50;;;;;;;34.93;29.24;100678.20;106644;1251;61240;-90
2023/08/22 09:59:30;;;;;;;6.10;1.90;;;;;;;34.82;29.27;100683.58;106738;1251;61119;-90
2023/08/22 10:02:19;;;;;;;8.10;2.30;;;;;;;34.84;29.16;100684.02;106499;1251;65392;-89
2023/08/22 10:05:09;;;;;;;6.00;2.10;;;;;;;34.73;29.12;100679.59;106503;1256;61265;-88
2023/08/22 10:07:58;;;;;;;6.00;1.90;;;;;;;34.64;29.65;100672.55;106451;1257;65235;-89
2023/08/22 10:10:47;;;;;;;4.90;2.20;;;;;;;34.71;29.67;100673.37;106374;1253;61323;-90
2023/08/22 10:13:36;;;;;;;14.00;2.80;;;;;;;34.70;29.34;100670.66;106508;1253;61183;-93
2023/08/22 10:16:28;;;;;;;7.30;2.20;;;;;;;34.68;29.38;100672.63;106201;1259;65745;-88
2023/08/22 10:19:17;;;;;;;8.70;2.00;;;;;;;34.72;29.40;100670.52;106286;1253;61895;-90
2023/08/22 10:22:09;;;;;;;5.20;2.00;;;;;;;34.58;30.02;100668.95;106425;1254;65945;-89
2023/08/22 10:25:02;;;;;;;4.10;1.60;;;;;;;34.56;29.96;100673.86;106507;1251;61273;-90
2023/08/22 10:27:51;;;;;;;7.50;2.10;;;;;;;34.39;30.49;100677.23;106314;1252;59986;-90
2023/08/22 10:30:59;;;;;;;3.00;1.80;;;;;;;34.24;30.48;100674.30;106193;1251;68421;-88
2023/08/22 10:33:59;;;;;;;4.10;1.80;;;;;;;34.26;29.46;100674.84;106304;1256;61312;-89
2023/08/22 10:36:59;;;;;;;;;;;;;;;34.42;29.74;100678.20;106494;1253;63913;-90
2023/08/22 10:39:51;;;;;;;5.80;2.20;;;;;;;34.54;30.29;100674.55;106586;1251;61354;-86
2023/08/22 10:42:42;;;;;;;7.50;1.90;;;;;;;34.62;29.56;100675.85;106290;1253;61521;-88
2023/08/22 10:45:48;;;;;;;4.40;1.80;;;;;;;34.64;29.39;100676.70;106483;1251;64542;-90
2023/08/22 10:48:38;;;;;;;4.70;1.90;;;;;;;34.79;28.89;100680.56;106302;1256;61297;-89
2023/08/22 10:51:42;;;;;;;3.30;1.70;;;;;;;34.88;29.31;100672.48;106465;1252;66267;-90
2023/08/22 10:54:31;;;;;;;4.20;2.00;;;;;;;34.94;29.59;100673.57;106489;1254;61708;-90
2023/08/22 10:57:21;;;;;;;5.00;2.10;;;;;;;35.18;29.14;100673.34;106337;1251;59844;-89
2023/08/22 11:00:19;;;;;;;7.50;2.00;;;;;;;35.40;28.90;100672.53;106265;1253;65831;-91
2023/08/22 11:03:08;;;;;;;5.60;1.80;;;;;;;35.52;28.30;100680.55;106417;1253;61398;-89
2023/08/22 11:06:00;;;;;;;10.10;2.30;;;;;;;35.56;28.01;100685.17;106525;1253;66520;-89
2023/08/22 11:08:49;;;;;;;6.40;2.10;;;;;;;35.57;28.03;100683.85;106263;1254;61251;-89
2023/08/22 11:11:40;;;;;;;7.70;1.90;;;;;;;35.61;27.31;100681.34;106407;1253;61234;-87
2023/08/22 11:14:43;;;;;;;9.10;2.00;;;;;;;35.45;27.68;100679.85;106193;1253;66284;-90
2023/08/22 11:17:37;;;;;;;6.30;2.00;;;;;;;35.40;27.23;100678.84;106296;1257;61323;-92
2023/08/22 11:20:26;;;;;;;12.90;3.70;;;;;;;35.37;27.05;100677.38;106565;1254;64620;-90
2023/08/22 11:23:15;;;;;;;8.10;3.60;;;;;;;35.25;27.00;100674.27;106408;1253;61033;-91
2023/08/22 11:26:07;;;;;;;4.10;1.40;;;;;;;35.30;26.68;100669.44;106361;1256;61177;-88
2023/08/22 11:28:55;;;;;;;4.70;2.00;;;;;;;35.45;26.03;100669.71;106424;1253;67032;-90
2023/08/22 11:31:44;;;;;;;12.30;2.30;;;;;;;35.69;26.23;100667.40;106442;1256;61246;-89
2023/08/22 11:34:36;;;;;;;7.40;1.60;;;;;;;35.75;26.37;100666.01;106650;1253;67305;-90
2023/08/22 11:37:25;;;;;;;5.90;1.70;;;;;;;35.85;26.22;100672.48;106662;1253;61249;-89
2023/08/22 11:40:14;;;;;;;8.80;1.80;;;;;;;36.04;26.33;100676.33;106536;1253;61330;-90
2023/08/22 11:43:03;;;;;;;12.60;1.90;;;;;;;36.20;25.81;100677.04;106650;1252;68532;-89
2023/08/22 11:45:52;;;;;;;8.80;1.90;;;;;;;36.12;25.06;100680.19;106321;1260;61299;-88
2023/08/22 11:48:42;;;;;;;2.40;1.30;;;;;;;36.16;25.06;100679.44;106318;1253;62505;-88
2023/08/22 11:51:31;;;;;;;5.70;1.60;;;;;;;36.38;24.22;100673.14;106308;1256;61523;-89
2023/08/22 11:54:24;;;;;;;5.20;1.30;;;;;;;36.56;24.11;100675.23;106470;1253;61254;-90
2023/08/22 11:57:13;;;;;;;2.80;1.30;;;;;;;36.73;24.24;100674.80;106588;1253;67111;-88
2023/08/22 12:00:08;;;;;;;6.40;1.30;;;;;;;36.96;24.15;100675.74;106420;1253;62141;-90
2023/08/22 12:03:05;;;;;;;40.60;4.30;;;;;;;37.21;23.28;100671.77;106394;1253;66585;-90
2023/08/22 12:05:55;;;;;;;9.50;1.70;;;;;;;37.20;22.61;100668.56;106323;1253;61344;-90
2023/08/22 12:08:54;;;;;;;7.30;1.90;;;;;;;37.17;22.64;100678.58;106418;1253;60388;-90
2023/08/22 12:11:43;;;;;;;11.80;2.20;;;;;;;37.39;22.41;100681.77;106238;1253;70357;-90
2023/08/22 12:14:31;;;;;;;10.90;1.80;;;;;;;37.40;21.91;100680.58;106419;1253;61366;-87
2023/08/22 12:17:20;;;;;;;10.00;2.00;;;;;;;37.36;22.33;100684.88;106395;1254;66233;-91
2023/08/22 12:20:09;;;;;;;2.90;1.30;;;;;;;37.44;21.95;100683.14;106663;1252;61274;-89
2023/08/22 12:22:58;;;;;;;7.10;1.50;;;;;;;37.51;22.00;100677.45;106337;1256;61516;-89
2023/08/22 12:25:47;;;;;;;10.40;1.70;;;;;;;37.63;21.82;100679.50;106462;1256;68303;-90
2023/08/22 12:28:36;;;;;;;13.30;2.80;;;;;;;37.50;21.08;100672.00;106455;1253;62502;-90
2023/08/22 12:31:28;;;;;;;6.50;1.40;;;;;;;37.55;21.57;100670.95;106348;1254;66424;-89
2023/08/22 12:34:16;;;;;;;4.00;1.60;;;;;;;37.45;21.23;100672.67;106222;1255;61310;-89
2023/08/22 12:37:05;;;;;;;6.00;1.40;;;;;;;37.22;21.85;100671.34;105983;1253;61291;-89
2023/08/22 12:39:54;;;;;;;3.30;1.30;;;;;;;37.10;22.45;100669.54;106168;1259;67822;-88
2023/08/22 12:42:45;;;;;;;1.60;1.00;;;;;;;36.97;22.35;100668.24;106374;1253;62512;-91
2023/08/22 12:45:33;;;;;;;5.80;1.30;;;;;;;36.65;22.19;100671.04;106311;1255;62543;-91
2023/08/22 12:48:22;;;;;;;5.80;1.30;;;;;;;36.41;22.31;100670.38;106176;1253;61311;-89
2023/08/22 12:51:11;;;;;;;20.00;2.50;;;;;;;36.19;22.37;100671.52;106241;1253;61212;-89
2023/08/22 12:54:00;;;;;;;8.80;1.60;;;;;;;36.10;22.10;100667.73;106133;1253;67766;-89
2023/08/22 12:56:48;;;;;;;4.80;1.40;;;;;;;36.04;22.14;100664.32;106196;1253;62424;-88
2023/08/22 12:59:38;;;;;;;4.90;1.30;;;;;;;35.97;22.48;100661.00;106281;1254;66303;-88
2023/08/22 13:02:26;;;;;;;9.10;1.90;;;;;;;36.12;22.65;100662.14;106130;1254;61388;-90
2023/08/22 13:05:16;;;;;;;7.30;1.50;;;;;;;36.40;22.35;100660.09;106258;1258;61167;-90
2023/08/22 13:08:05;;;;;;;4.10;1.40;;;;;;;36.71;22.04;100657.52;106243;1253;67150;-89
2023/08/22 13:10:54;;;;;;;10.00;1.90;;;;;;;37.02;21.78;100656.20;106267;1258;61290;-90
2023/08/22 13:13:45;;;;;;;4.30;1.40;;;;;;;37.36;21.40;100647.59;106424;1254;64856;-89
2023/08/22 13:16:34;;;;;;;11.70;2.10;;;;;;;37.66;21.59;100652.96;106392;1256;61237;-90
2023/08/22 13:19:23;;;;;;;4.70;1.40;;;;;;;37.88;21.58;100649.81;106602;1253;61257;-90
2023/08/22 13:22:11;;;;;;;5.40;1.80;;;;;;;38.23;21.33;100651.04;106176;1259;68505;-90
2023/08/22 13:25:00;;;;;;;28.10;2.70;;;;;;;38.65;20.58;100648.45;106313;1253;61368;-89
2023/08/22 13:27:49;;;;;;;6.00;1.20;;;;;;;38.75;19.65;100650.34;106237;1253;66273;-89
2023/08/22 13:30:38;;;;;;;4.90;1.20;;;;;;;38.78;20.14;100652.98;106432;1256;61353;-90
2023/08/22 13:33:27;;;;;;;9.20;2.20;;;;;;;39.04;20.50;100658.70;106259;1253;61297;-90
2023/08/22 13:36:18;;;;;;;4.90;3.30;;;;;;;39.25;20.28;100660.02;106185;1253;69060;-90
2023/08/22 13:39:06;;;;;;;4.90;2.60;;;;;;;39.35;20.10;100664.44;106317;1253;61277;-88
2023/08/22 13:41:55;;;;;;;6.30;1.70;;;;;;;39.48;19.47;100664.52;106289;1253;64536;-89
2023/08/22 13:44:44;;;;;;;7.30;1.80;;;;;;;39.57;19.55;100665.70;106163;1259;61232;-90
2023/08/22 13:47:33;;;;;;;8.60;1.50;;;;;;;39.47;19.91;100668.48;106280;1256;61300;-89
2023/08/22 13:50:22;;;;;;;14.70;2.20;;;;;;;39.63;20.25;100663.48;106509;1253;66214;-89
2023/08/22 13:53:10;;;;;;;6.50;1.30;;;;;;;39.82;19.34;100660.19;106261;1256;62369;-89
2023/08/22 13:55:59;;;;;;;4.50;1.40;;;;;;;39.56;19.33;100658.48;106252;1256;65751;-90
2023/08/22 13:58:48;;;;;;;5.70;1.60;;;;;;;39.39;19.94;100660.13;106353;1253;61278;-90
2023/08/22 14:01:37;;;;;;;7.40;1.50;;;;;;;39.57;19.80;100659.25;106405;1256;61176;-89
2023/08/22 14:04:26;;;;;;;3.50;1.50;;;;;;;39.47;19.86;100660.91;106398;1252;68467;-89
2023/08/22 14:07:15;;;;;;;4.00;1.60;;;;;;;39.34;19.95;100659.16;106536;1251;61841;-89
2023/08/22 14:10:04;;;;;;;5.30;1.60;;;;;;;39.33;19.41;100660.77;106538;1251;63916;-89
2023/08/22 14:12:52;;;;;;;5.80;2.00;;;;;;;39.17;19.80;100655.81;106500;1256;61206;-90
2023/08/22 14:15:41;;;;;;;3.30;1.50;;;;;;;39.15;20.12;100657.09;106705;1255;240545;-88
2023/08/22 14:18:30;;;;;;;3.70;1.60;;;;;;;39.10;20.16;100656.83;106983;1251;68608;-87
2023/08/22 14:21:19;;;;;;;4.70;1.80;;;;;;;39.04;20.52;100657.16;106721;1255;61282;-89
2023/08/22 14:24:12;;;;;;;5.30;1.50;;;;;;;39.01;20.71;100661.38;106541;1251;66153;-89
2023/08/22 14:27:04;;;;;;;9.20;1.70;;;;;;;38.66;20.89;100663.44;106436;1257;61273;-90
2023/08/22 14:29:52;;;;;;;3.20;1.60;;;;;;;38.35;21.43;100662.09;106733;1251;61345;-91
2023/08/22 14:32:41;;;;;;;6.40;1.80;;;;;;;37.95;21.36;100661.55;106721;1251;66859;-88
2023/08/22 14:35:30;;;;;;;6.30;1.80;;;;;;;37.50;21.73;100663.80;106623;1251;61249;-90
2023/08/22 14:38:22;;;;;;;4.20;2.00;;;;;;;37.13;22.36;100666.68;106445;1256;63741;-89
2023/08/22 14:41:12;;;;;;;4.80;1.70;;;;;;;36.85;23.11;100669.11;106525;1257;61219;-91